createdAt,value
2019-03-29T00:02:06.051Z,11.80
2019-03-29T00:06:10.902Z,13.83
2019-03-29T00:10:15.901Z,12.30
2019-03-29T00:14:23.377Z,13.60
2019-03-29T00:18:27.187Z,15.97
2019-03-29T00:22:31.936Z,12.27
2019-03-29T00:26:36.663Z,13.33
2019-03-29T00:30:41.988Z,11.70
2019-03-29T00:34:46.832Z,13.97
2019-03-29T00:38:51.694Z,10.80
2019-03-29T00:42:56.448Z,13.83
2019-03-29T00:47:01.198Z,12.83
2019-03-29T00:51:06.046Z,12.97
2019-03-29T00:55:10.807Z,12.10
2019-03-29T00:59:15.525Z,12.33
2019-03-29T01:03:20.582Z,11.73
2019-03-29T01:07:25.702Z,13.33
2019-03-29T01:11:30.431Z,12.10
2019-03-29T01:15:38.257Z,13.27
2019-03-29T01:19:43.466Z,12.73
2019-03-29T01:23:48.228Z,12.37
2019-03-29T01:27:52.919Z,11.13
2019-03-29T01:31:57.674Z,11.80
2019-03-29T01:36:03.265Z,10.47
2019-03-29T01:40:09.133Z,10.70
2019-03-29T01:44:14.087Z,12.43
2019-03-29T01:48:18.833Z,14.93
2019-03-29T01:52:23.867Z,11.73
2019-03-29T01:56:28.615Z,13.80
2019-03-29T02:00:36.033Z,14.87
2019-03-29T02:04:41.103Z,12.37
2019-03-29T02:08:45.794Z,11.80
2019-03-29T02:12:50.946Z,11.20
2019-03-29T02:16:56.025Z,12.90
2019-03-29T02:21:01.111Z,12.17
2019-03-29T02:25:06.582Z,10.70
2019-03-29T02:29:11.329Z,11.87
2019-03-29T02:33:16.170Z,8.57
2019-03-29T02:37:20.908Z,11.13
2019-03-29T02:41:25.751Z,11.27
2019-03-29T02:45:30.804Z,12.83
2019-03-29T02:49:35.877Z,8.90
2019-03-29T02:53:40.729Z,11.47
2019-03-29T02:57:45.821Z,12.37
2019-03-29T03:01:50.805Z,10.63
2019-03-29T03:05:55.583Z,11.07
2019-03-29T03:10:00.600Z,11.57
2019-03-29T03:14:05.442Z,12.33
2019-03-29T03:18:10.246Z,11.10
2019-03-29T03:22:14.978Z,9.00
2019-03-29T03:26:19.722Z,10.03
2019-03-29T03:30:24.490Z,12.93
2019-03-29T03:34:29.212Z,10.97
2019-03-29T03:38:34.064Z,12.67
2019-03-29T03:42:38.819Z,11.27
2019-03-29T03:46:43.588Z,11.67
2019-03-29T03:50:48.318Z,10.63
2019-03-29T03:54:53.047Z,9.33
2019-03-29T03:58:59.172Z,10.93
2019-03-29T04:03:03.892Z,12.67
2019-03-29T04:07:08.663Z,10.43
2019-03-29T04:11:13.383Z,12.63
2019-03-29T04:15:18.567Z,9.07
2019-03-29T04:19:23.392Z,11.37
2019-03-29T04:23:28.135Z,13.97
2019-03-29T04:27:32.842Z,9.07
2019-03-29T04:31:37.593Z,12.00
2019-03-29T04:35:42.436Z,11.97
2019-03-29T04:39:47.174Z,9.73
2019-03-29T04:43:51.933Z,11.80
2019-03-29T04:47:56.664Z,10.90
2019-03-29T04:52:01.408Z,8.70
2019-03-29T04:56:06.149Z,11.83
2019-03-29T05:00:11.115Z,10.43
2019-03-29T05:04:15.840Z,16.53
2019-03-29T05:08:20.589Z,13.07
2019-03-29T05:12:25.417Z,12.83
2019-03-29T05:16:30.176Z,13.50
2019-03-29T05:20:34.873Z,15.27
2019-03-29T05:24:39.605Z,12.37
2019-03-29T05:28:44.473Z,13.63
2019-03-29T05:32:49.259Z,12.67
2019-03-29T05:36:54.057Z,10.53
2019-03-29T05:40:58.889Z,12.43
2019-03-29T05:45:03.647Z,11.83
2019-03-29T05:49:08.475Z,16.97
2019-03-29T05:53:13.594Z,12.50
2019-03-29T05:57:18.787Z,11.80
2019-03-29T06:01:23.514Z,17.80
2019-03-29T06:05:28.360Z,14.77
2019-03-29T06:09:35.081Z,16.53
2019-03-29T06:13:40.098Z,18.57
2019-03-29T06:17:48.771Z,14.80
2019-03-29T06:21:51.389Z,15.47
2019-03-29T06:25:56.158Z,19.23
2019-03-29T06:30:00.854Z,16.20
2019-03-29T06:34:05.654Z,16.27
2019-03-29T06:38:11.307Z,16.93
2019-03-29T06:42:16.115Z,16.13
2019-03-29T06:46:20.865Z,14.57
2019-03-29T06:50:25.659Z,16.93
2019-03-29T06:54:30.350Z,15.93
2019-03-29T06:58:35.084Z,16.27
2019-03-29T07:02:39.838Z,15.67
2019-03-29T07:06:44.583Z,13.50
2019-03-29T07:10:49.383Z,14.83
2019-03-29T07:14:54.127Z,12.73
2019-03-29T07:18:58.874Z,18.83
2019-03-29T07:23:03.636Z,15.17
2019-03-29T07:27:08.332Z,18.20
2019-03-29T07:31:13.116Z,15.53
2019-03-29T07:35:17.886Z,18.03
2019-03-29T07:39:22.736Z,14.80
2019-03-29T07:43:27.543Z,14.13
2019-03-29T07:47:32.266Z,15.13
2019-03-29T07:51:37.076Z,16.40
2019-03-29T07:55:41.839Z,16.60
2019-03-29T07:59:46.697Z,15.33
2019-03-29T08:03:52.526Z,14.33
2019-03-29T08:07:58.062Z,17.27
2019-03-29T08:12:03.257Z,18.00
2019-03-29T08:16:08.034Z,18.40
2019-03-29T08:20:38.189Z,15.33
2019-03-29T08:24:19.590Z,14.03
2019-03-29T08:28:24.360Z,16.53
2019-03-29T08:32:29.556Z,15.03
2019-03-29T08:36:34.660Z,13.80
2019-03-29T08:40:39.428Z,15.60
2019-03-29T08:44:44.178Z,14.20
2019-03-29T08:48:49.060Z,14.27
2019-03-29T08:52:53.748Z,16.30
2019-03-29T08:56:58.506Z,13.43
2019-03-29T09:01:03.276Z,18.30
2019-03-29T09:05:08.408Z,16.40
2019-03-29T09:09:13.153Z,14.20
2019-03-29T09:13:17.925Z,12.73
2019-03-29T09:17:22.659Z,12.77
2019-03-29T09:21:27.420Z,13.67
2019-03-29T09:25:32.114Z,8.90
2019-03-29T09:29:37.081Z,6.07
2019-03-29T09:33:41.927Z,8.83
2019-03-29T09:37:46.718Z,11.07
2019-03-29T09:41:51.526Z,11.20
2019-03-29T09:45:56.384Z,8.10
2019-03-29T09:50:01.129Z,10.80
2019-03-29T09:54:05.877Z,8.07
2019-03-29T09:58:10.672Z,10.37
2019-03-29T10:02:15.528Z,9.57
2019-03-29T10:06:20.436Z,10.67
2019-03-29T10:10:25.190Z,7.90
2019-03-29T10:14:33.321Z,10.40
2019-03-29T10:18:36.555Z,8.13
2019-03-29T10:22:41.332Z,8.63
2019-03-29T10:26:46.082Z,8.53
2019-03-29T10:30:50.947Z,8.90
2019-03-29T10:34:55.834Z,8.27
2019-03-29T10:39:00.938Z,9.43
2019-03-29T10:43:05.994Z,8.60
2019-03-29T10:47:10.898Z,9.03
2019-03-29T10:51:15.637Z,7.47
2019-03-29T10:55:20.387Z,7.27
2019-03-29T10:59:27.749Z,7.17
2019-03-29T11:03:31.722Z,7.67
2019-03-29T11:07:36.475Z,5.73
2019-03-29T11:11:41.180Z,8.77
2019-03-29T11:15:45.941Z,10.00
2019-03-29T11:19:50.780Z,7.80
2019-03-29T11:23:55.533Z,7.90
2019-03-29T11:28:00.780Z,8.17
2019-03-29T11:32:05.502Z,7.00
2019-03-29T11:36:10.517Z,7.70
2019-03-29T11:40:15.626Z,8.30
2019-03-29T11:44:20.384Z,7.83
2019-03-29T11:48:25.244Z,7.53
2019-03-29T11:52:30.057Z,8.97
2019-03-29T11:56:34.781Z,7.70
2019-03-29T12:00:41.187Z,6.00
2019-03-29T12:04:45.892Z,6.30
2019-03-29T12:08:50.631Z,6.77
2019-03-29T12:12:55.374Z,6.03
2019-03-29T12:17:00.136Z,7.57
2019-03-29T12:21:05.048Z,5.77
2019-03-29T12:25:09.811Z,5.20
2019-03-29T12:29:14.622Z,6.77
2019-03-29T12:33:19.416Z,6.43
2019-03-29T12:37:24.206Z,7.67
2019-03-29T12:41:29.167Z,5.70
2019-03-29T12:45:35.580Z,6.43
2019-03-29T12:49:40.576Z,7.20
2019-03-29T12:53:45.439Z,5.70
2019-03-29T12:57:50.170Z,7.90
2019-03-29T13:01:55.103Z,6.23
2019-03-29T13:05:59.824Z,7.47
2019-03-29T13:10:05.150Z,7.57
2019-03-29T13:14:10.979Z,7.17
2019-03-29T13:18:15.879Z,5.13
2019-03-29T13:22:20.856Z,5.17
2019-03-29T13:26:25.679Z,5.03
2019-03-29T13:30:30.435Z,7.27
2019-03-29T13:34:35.265Z,5.87
2019-03-29T13:38:40.031Z,6.23
2019-03-29T13:42:45.001Z,6.43
2019-03-29T13:46:50.382Z,5.87
2019-03-29T13:50:55.139Z,5.83
2019-03-29T13:54:59.901Z,5.70
2019-03-29T13:59:04.770Z,6.23
2019-03-29T14:03:09.604Z,6.37
2019-03-29T14:07:14.377Z,5.77
2019-03-29T14:11:19.284Z,4.90
2019-03-29T14:15:24.053Z,5.33
2019-03-29T14:19:30.505Z,6.27
2019-03-29T14:23:37.711Z,5.07
2019-03-29T14:27:42.600Z,6.13
2019-03-29T14:31:47.664Z,4.87
2019-03-29T14:35:53.282Z,5.43
2019-03-29T14:39:58.018Z,6.50
2019-03-29T14:44:02.769Z,8.73
2019-03-29T14:48:07.546Z,4.50
2019-03-29T14:52:12.316Z,7.97
2019-03-29T14:56:17.052Z,5.13
2019-03-29T15:00:36.534Z,6.57
2019-03-29T15:04:41.689Z,5.10
2019-03-29T15:08:49.731Z,6.53
2019-03-29T15:12:53.993Z,5.30
2019-03-29T15:16:58.752Z,6.13
2019-03-29T15:21:03.489Z,4.77
2019-03-29T15:25:09.662Z,5.57
2019-03-29T15:29:14.671Z,5.60
2019-03-29T15:33:19.417Z,4.47
2019-03-29T15:37:24.194Z,4.90
2019-03-29T15:41:29.702Z,5.77
2019-03-29T15:45:34.967Z,5.07
2019-03-29T15:49:40.398Z,6.67
2019-03-29T15:53:45.908Z,5.40
2019-03-29T15:57:50.637Z,5.87
2019-03-29T16:01:55.762Z,5.60
2019-03-29T16:06:01.684Z,5.57
2019-03-29T16:10:07.085Z,5.37
2019-03-29T16:14:11.827Z,5.63
2019-03-29T16:18:16.690Z,6.73
2019-03-29T16:22:22.710Z,5.43
2019-03-29T16:26:27.551Z,5.40
2019-03-29T16:30:33.925Z,5.47
2019-03-29T16:34:40.431Z,4.43
2019-03-29T16:38:45.514Z,6.50
2019-03-29T16:42:50.827Z,6.77
2019-03-29T16:46:56.486Z,6.07
2019-03-29T16:51:02.171Z,5.43
2019-03-29T16:55:13.656Z,6.33
2019-03-29T16:59:14.706Z,6.10
2019-03-29T17:03:21.067Z,5.43
2019-03-29T17:07:26.154Z,6.27
2019-03-29T17:11:31.931Z,6.90
2019-03-29T17:15:36.666Z,5.67
2019-03-29T17:19:41.748Z,5.37
2019-03-29T17:23:47.666Z,5.17
2019-03-29T17:27:52.918Z,6.43
2019-03-29T17:31:59.694Z,7.47
2019-03-29T17:36:04.970Z,6.33
2019-03-29T17:40:10.587Z,6.20
2019-03-29T17:44:15.401Z,5.60
2019-03-29T17:48:21.235Z,4.70
2019-03-29T17:52:27.014Z,6.10
2019-03-29T17:56:32.385Z,4.50
2019-03-29T18:00:38.378Z,6.27
2019-03-29T18:04:43.097Z,7.37
2019-03-29T18:08:48.890Z,7.40
2019-03-29T18:12:53.908Z,7.80
2019-03-29T18:16:58.762Z,7.50
2019-03-29T18:21:03.481Z,9.30
2019-03-29T18:25:08.660Z,9.20
2019-03-29T18:29:13.936Z,10.10
2019-03-29T18:33:19.919Z,7.83
2019-03-29T18:37:25.295Z,9.37
2019-03-29T18:41:30.837Z,8.60
2019-03-29T18:45:35.502Z,9.53
2019-03-29T18:49:41.422Z,9.23
2019-03-29T18:53:47.269Z,7.50
2019-03-29T18:57:53.168Z,8.60
2019-03-29T19:01:59.784Z,11.20
2019-03-29T19:06:04.900Z,9.70
2019-03-29T19:10:10.534Z,9.10
2019-03-29T19:14:15.842Z,11.73
2019-03-29T19:18:21.015Z,12.73
2019-03-29T19:22:26.200Z,11.17
2019-03-29T19:26:31.070Z,9.73
2019-03-29T19:30:36.458Z,8.17
2019-03-29T19:34:41.427Z,9.10
2019-03-29T19:38:46.613Z,11.33
2019-03-29T19:42:52.498Z,13.07
2019-03-29T19:46:57.568Z,10.67
2019-03-29T19:51:02.563Z,10.73
2019-03-29T19:55:07.556Z,11.23
2019-03-29T19:59:12.349Z,11.13
2019-03-29T20:03:17.136Z,9.30
2019-03-29T20:07:21.977Z,11.10
2019-03-29T20:11:26.856Z,9.60
2019-03-29T20:15:31.655Z,10.87
2019-03-29T20:19:36.493Z,10.77
2019-03-29T20:23:41.564Z,10.60
2019-03-29T20:27:46.375Z,11.67
2019-03-29T20:31:51.155Z,8.50
2019-03-29T20:35:56.104Z,9.87
2019-03-29T20:40:01.725Z,14.80
2019-03-29T20:44:07.351Z,10.37
2019-03-29T20:48:12.907Z,12.40
2019-03-29T20:52:18.673Z,11.43
2019-03-29T20:56:23.691Z,12.40
2019-03-29T21:00:28.453Z,13.13
2019-03-29T21:04:33.365Z,10.57
2019-03-29T21:08:38.155Z,11.17
2019-03-29T21:12:43.457Z,10.80
2019-03-29T21:16:48.656Z,14.57
2019-03-29T21:20:53.448Z,13.17
2019-03-29T21:24:58.244Z,10.93
2019-03-29T21:29:03.163Z,12.17
2019-03-29T21:33:07.918Z,15.07
2019-03-29T21:37:12.959Z,14.73
2019-03-29T21:41:17.720Z,11.27
2019-03-29T21:45:28.726Z,12.83
2019-03-29T21:49:29.072Z,10.90
2019-03-29T21:53:33.887Z,10.97
2019-03-29T21:57:41.622Z,11.60
2019-03-29T22:01:47.537Z,14.03
2019-03-29T22:05:52.424Z,12.13
2019-03-29T22:09:57.245Z,14.33
2019-03-29T22:14:02.000Z,12.43
2019-03-29T22:18:07.090Z,11.63
2019-03-29T22:22:11.889Z,13.17
2019-03-29T22:26:16.828Z,11.83
2019-03-29T22:30:22.183Z,12.60
2019-03-29T22:34:28.458Z,13.07
2019-03-29T22:38:33.636Z,13.07
2019-03-29T22:42:38.832Z,10.87
2019-03-29T22:46:43.766Z,11.23
2019-03-29T22:50:48.718Z,10.80
2019-03-29T22:54:53.532Z,12.77
2019-03-29T22:58:58.428Z,10.37
2019-03-29T23:03:03.368Z,9.40
2019-03-29T23:07:08.739Z,13.30
2019-03-29T23:11:14.994Z,10.67
2019-03-29T23:15:19.876Z,9.67
2019-03-29T23:19:24.689Z,9.83
2019-03-29T23:23:29.553Z,10.67
2019-03-29T23:27:34.750Z,10.33
2019-03-29T23:31:39.495Z,10.57
2019-03-29T23:35:44.538Z,10.30
2019-03-29T23:39:49.375Z,10.13
2019-03-29T23:43:54.137Z,11.50
2019-03-29T23:47:58.884Z,10.97
2019-03-29T23:52:03.665Z,12.60
2019-03-29T23:56:08.385Z,12.53
